createdAt,value
2023-03-06T00:01:05.753Z,8.50
2023-03-06T00:03:33.947Z,8.60
2023-03-06T00:06:02.147Z,8.20
2023-03-06T00:08:29.950Z,7.80
2023-03-06T00:10:57.729Z,8.00
2023-03-06T00:13:26.864Z,8.00
2023-03-06T00:15:54.377Z,8.00
2023-03-06T00:18:21.716Z,8.10
2023-03-06T00:20:49.518Z,8.20
2023-03-06T00:23:17.087Z,8.10
2023-03-06T00:25:45.981Z,8.20
2023-03-06T00:28:15.832Z,8.20
2023-03-06T00:30:44.392Z,8.40
2023-03-06T00:33:12.461Z,8.20
2023-03-06T00:35:42.174Z,7.70
2023-03-06T00:38:12.556Z,7.70
2023-03-06T00:40:40.061Z,7.80
2023-03-06T00:43:07.392Z,7.60
2023-03-06T00:45:39.518Z,7.80
2023-03-06T00:48:09.463Z,7.80
2023-03-06T00:50:36.876Z,8.10
2023-03-06T00:53:04.186Z,8.10
2023-03-06T00:55:33.583Z,8.10
2023-03-06T00:58:01.019Z,7.90
2023-03-06T01:00:31.178Z,7.60
2023-03-06T01:02:58.808Z,7.60
2023-03-06T01:05:26.708Z,7.50
2023-03-06T01:07:54.370Z,7.50
2023-03-06T01:10:21.809Z,7.40
2023-03-06T01:12:49.498Z,7.60
2023-03-06T01:15:24.591Z,7.30
2023-03-06T01:17:54.935Z,7.20
2023-03-06T01:20:22.788Z,7.50
2023-03-06T01:22:50.996Z,7.80
2023-03-06T01:25:19.122Z,8.00
2023-03-06T01:27:46.511Z,7.90
2023-03-06T01:30:14.303Z,8.20
2023-03-06T01:32:41.637Z,8.20
2023-03-06T01:35:09.982Z,8.20
2023-03-06T01:37:38.571Z,8.20
2023-03-06T01:40:07.818Z,8.10
2023-03-06T01:42:35.311Z,8.00
2023-03-06T01:45:13.744Z,8.00
2023-03-06T01:47:41.360Z,8.00
2023-03-06T01:50:11.852Z,7.90
2023-03-06T01:52:55.581Z,7.60
2023-03-06T01:55:28.865Z,7.80
2023-03-06T01:58:00.030Z,7.90
2023-03-06T02:01:17.265Z,7.90
2023-03-06T02:03:46.318Z,7.90
2023-03-06T02:06:19.736Z,7.90
2023-03-06T02:08:50.099Z,7.90
2023-03-06T02:11:20.697Z,7.80
2023-03-06T02:13:54.190Z,7.90
2023-03-06T02:16:29.150Z,7.30
2023-03-06T02:18:58.608Z,7.00
2023-03-06T02:21:37.653Z,7.10
2023-03-06T02:24:13.391Z,7.30
2023-03-06T02:26:42.502Z,7.30
2023-03-06T02:29:10.611Z,7.30
2023-03-06T02:31:38.136Z,7.40
2023-03-06T02:34:27.487Z,7.40
2023-03-06T02:37:02.975Z,7.40
2023-03-06T02:39:33.835Z,7.60
2023-03-06T02:42:01.454Z,7.40
2023-03-06T02:44:35.809Z,7.50
2023-03-06T02:47:02.962Z,7.40
2023-03-06T02:49:30.579Z,7.40
2023-03-06T02:52:00.239Z,7.50
2023-03-06T02:54:27.575Z,7.40
2023-03-06T02:56:55.274Z,7.50
2023-03-06T02:59:22.806Z,7.50
2023-03-06T03:01:54.186Z,7.40
2023-03-06T03:04:21.693Z,7.30
2023-03-06T03:06:49.384Z,7.40
2023-03-06T03:09:16.878Z,7.30
2023-03-06T03:11:44.982Z,7.30
2023-03-06T03:14:13.250Z,6.90
2023-03-06T03:16:40.531Z,7.10
2023-03-06T03:19:08.256Z,7.10
2023-03-06T03:21:35.926Z,7.20
2023-03-06T03:24:03.605Z,7.10
2023-03-06T03:26:31.482Z,6.90
2023-03-06T03:29:06.127Z,7.00
2023-03-06T03:31:34.166Z,7.00
2023-03-06T03:34:03.492Z,7.20
2023-03-06T03:36:34.859Z,7.30
2023-03-06T03:39:04.227Z,7.40
2023-03-06T03:41:33.295Z,7.30
2023-03-06T03:44:03.956Z,7.10
2023-03-06T03:46:32.842Z,7.20
2023-03-06T03:49:02.120Z,7.30
2023-03-06T03:51:29.459Z,7.60
2023-03-06T03:53:58.856Z,7.40
2023-03-06T03:56:30.649Z,7.60
2023-03-06T03:59:06.037Z,7.70
2023-03-06T04:01:40.143Z,7.90
2023-03-06T04:04:08.548Z,7.80
2023-03-06T04:06:36.303Z,7.70
2023-03-06T04:09:05.175Z,7.60
2023-03-06T04:11:33.659Z,7.90
2023-03-06T04:14:01.594Z,7.80
2023-03-06T04:16:29.349Z,7.90
2023-03-06T04:18:56.782Z,7.70
2023-03-06T04:21:24.616Z,7.70
2023-03-06T04:23:52.797Z,7.70
2023-03-06T04:26:20.853Z,7.50
2023-03-06T04:28:48.392Z,7.20
2023-03-06T04:31:16.190Z,6.70
2023-03-06T04:33:44.328Z,6.90
2023-03-06T04:36:28.619Z,7.10
2023-03-06T04:39:00.763Z,7.20
2023-03-06T04:41:28.952Z,7.20
2023-03-06T04:43:56.346Z,7.40
2023-03-06T04:46:23.743Z,7.40
2023-03-06T04:48:51.137Z,7.20
2023-03-06T04:51:18.526Z,7.10
2023-03-06T04:53:45.802Z,7.30
2023-03-06T04:56:13.436Z,7.10
2023-03-06T04:58:40.843Z,7.30
2023-03-06T05:01:08.875Z,7.40
2023-03-06T05:03:36.806Z,7.30
2023-03-06T05:06:05.766Z,7.20
2023-03-06T05:08:33.514Z,7.10
2023-03-06T05:11:02.676Z,7.20
2023-03-06T05:13:30.699Z,7.20
2023-03-06T05:16:04.068Z,7.20
2023-03-06T05:18:32.458Z,7.20
2023-03-06T05:21:00.309Z,7.10
2023-03-06T05:23:29.872Z,7.10
2023-03-06T05:25:58.134Z,7.20
2023-03-06T05:28:26.468Z,7.10
2023-03-06T05:30:53.807Z,6.90
2023-03-06T05:33:22.244Z,6.70
2023-03-06T05:35:51.547Z,6.70
2023-03-06T05:38:19.121Z,6.80
2023-03-06T05:40:47.222Z,6.90
2023-03-06T05:43:14.561Z,6.90
2023-03-06T05:45:43.031Z,7.00
2023-03-06T05:48:12.549Z,7.00
2023-03-06T05:50:40.534Z,6.90
2023-03-06T05:53:09.132Z,6.90
2023-03-06T05:55:36.397Z,7.00
2023-03-06T05:58:04.126Z,7.20
2023-03-06T06:00:33.728Z,7.10
2023-03-06T06:03:02.415Z,7.30
2023-03-06T06:05:30.213Z,7.10
2023-03-06T06:07:57.634Z,7.10
2023-03-06T06:10:25.996Z,7.20
2023-03-06T06:12:53.297Z,7.20
2023-03-06T06:15:25.395Z,7.20
2023-03-06T06:17:53.040Z,7.40
2023-03-06T06:20:20.379Z,7.20
2023-03-06T06:22:48.063Z,7.30
2023-03-06T06:25:15.905Z,7.50
2023-03-06T06:27:43.390Z,7.50
2023-03-06T06:30:13.577Z,7.60
2023-03-06T06:32:42.543Z,7.60
2023-03-06T06:35:11.441Z,7.60
2023-03-06T06:37:42.965Z,7.70
2023-03-06T06:40:11.022Z,7.70
2023-03-06T06:42:40.253Z,7.60
2023-03-06T06:45:11.976Z,7.50
2023-03-06T06:47:41.730Z,7.70
2023-03-06T06:50:13.178Z,7.70
2023-03-06T06:53:08.979Z,7.70
2023-03-06T06:56:09.199Z,7.60
2023-03-06T06:59:36.373Z,7.80
2023-03-06T07:05:24.216Z,7.80
2023-03-06T07:07:52.254Z,7.60
2023-03-06T07:10:21.213Z,7.60
2023-03-06T07:12:48.982Z,7.90
2023-03-06T07:15:21.246Z,8.10
2023-03-06T07:17:50.385Z,8.30
2023-03-06T07:20:18.675Z,8.60
2023-03-06T07:22:51.483Z,8.70
2023-03-06T07:25:19.508Z,8.60
2023-03-06T07:27:53.235Z,8.80
2023-03-06T07:30:29.144Z,8.70
2023-03-06T07:32:59.039Z,8.80
2023-03-06T07:35:27.289Z,8.80
2023-03-06T07:37:55.310Z,8.90
2023-03-06T07:40:23.235Z,8.80
2023-03-06T07:42:52.913Z,8.80
2023-03-06T07:45:26.576Z,8.90
2023-03-06T07:47:54.761Z,8.90
2023-03-06T07:50:22.361Z,9.00
2023-03-06T07:52:50.319Z,8.80
2023-03-06T07:55:18.015Z,9.10
2023-03-06T07:57:46.011Z,9.10
2023-03-06T08:00:16.705Z,9.30
2023-03-06T08:02:44.896Z,9.30
2023-03-06T08:05:14.980Z,9.30
2023-03-06T08:07:43.508Z,9.40
2023-03-06T08:10:14.284Z,9.50
2023-03-06T08:12:41.613Z,9.40
2023-03-06T08:15:11.636Z,9.40
2023-03-06T08:17:40.206Z,9.30
2023-03-06T08:20:10.608Z,9.40
2023-03-06T08:22:38.151Z,9.50
2023-03-06T08:25:12.690Z,9.40
2023-03-06T08:27:40.797Z,9.40
2023-03-06T08:30:10.059Z,9.40
2023-03-06T08:32:38.403Z,9.40
2023-03-06T08:35:08.754Z,9.40
2023-03-06T08:37:35.976Z,9.30
2023-03-06T08:40:06.279Z,9.30
2023-03-06T08:42:33.678Z,9.30
2023-03-06T08:45:01.030Z,9.30
2023-03-06T08:47:28.459Z,9.30
2023-03-06T08:49:56.091Z,9.30
2023-03-06T08:52:23.484Z,9.30
2023-03-06T08:54:50.802Z,9.40
2023-03-06T08:57:18.395Z,9.40
2023-03-06T08:59:46.142Z,9.20
2023-03-06T09:02:15.397Z,9.10
2023-03-06T09:04:43.048Z,9.10
2023-03-06T09:07:10.304Z,9.10
2023-03-06T09:09:37.664Z,9.20
2023-03-06T09:12:06.085Z,9.10
2023-03-06T09:14:33.387Z,9.20
2023-03-06T09:17:00.754Z,9.30
2023-03-06T09:19:28.139Z,9.30
2023-03-06T09:21:55.539Z,9.30
2023-03-06T09:24:23.121Z,9.40
2023-03-06T09:26:51.731Z,9.20
2023-03-06T09:29:19.155Z,9.20
2023-03-06T09:31:47.257Z,9.30
2023-03-06T09:34:14.785Z,9.40
2023-03-06T09:36:56.131Z,9.50
2023-03-06T09:39:26.361Z,9.80
2023-03-06T09:41:54.293Z,9.60
2023-03-06T09:44:34.965Z,9.70
2023-03-06T09:47:43.295Z,9.90
2023-03-06T09:50:13.954Z,9.90
2023-03-06T09:53:00.290Z,10.00
2023-03-06T09:55:33.921Z,10.20
2023-03-06T09:58:04.571Z,10.50
2023-03-06T10:00:57.601Z,10.70
2023-03-06T10:03:25.928Z,10.80
2023-03-06T10:06:16.217Z,11.10
2023-03-06T10:08:51.624Z,11.40
2023-03-06T10:11:28.298Z,11.80
2023-03-06T10:14:28.054Z,12.60
2023-03-06T10:16:56.332Z,13.10
2023-03-06T10:19:40.545Z,13.40
2023-03-06T10:23:06.532Z,14.00
2023-03-06T10:25:54.776Z,14.50
2023-03-06T10:28:29.737Z,14.90
2023-03-06T10:31:15.446Z,15.10
2023-03-06T10:34:06.970Z,15.60
2023-03-06T10:36:34.251Z,16.00
2023-03-06T10:39:10.277Z,16.30
2023-03-06T10:41:38.464Z,16.50
2023-03-06T10:44:06.978Z,16.70
2023-03-06T10:46:47.127Z,16.70
2023-03-06T10:49:33.736Z,16.70
2023-03-06T10:52:09.741Z,16.40
2023-03-06T10:54:39.634Z,16.40
2023-03-06T10:57:19.533Z,16.00
2023-03-06T10:59:55.853Z,15.80
2023-03-06T11:02:29.571Z,15.50
2023-03-06T11:04:59.375Z,15.20
2023-03-06T11:07:29.396Z,14.90
2023-03-06T11:10:03.346Z,14.70
2023-03-06T11:12:43.949Z,14.50
2023-03-06T11:15:15.217Z,14.20
2023-03-06T11:17:51.907Z,13.90
2023-03-06T11:20:20.509Z,13.30
2023-03-06T11:23:13.805Z,13.20
2023-03-06T11:26:04.525Z,13.10
2023-03-06T11:28:42.599Z,12.80
2023-03-06T11:31:21.106Z,12.40
2023-03-06T11:34:04.199Z,12.50
2023-03-06T11:36:44.230Z,12.30
2023-03-06T11:39:48.382Z,12.30
2023-03-06T11:42:34.519Z,12.30
2023-03-06T11:45:26.086Z,12.40
2023-03-06T11:47:58.885Z,12.30
2023-03-06T11:50:37.016Z,12.10
2023-03-06T11:53:07.626Z,12.00
2023-03-06T11:55:59.825Z,11.90
2023-03-06T11:58:39.827Z,11.80
2023-03-06T12:01:25.016Z,11.40
2023-03-06T12:04:03.866Z,11.00
2023-03-06T12:06:40.088Z,10.90
2023-03-06T12:09:10.254Z,10.80
2023-03-06T12:12:08.989Z,10.70
2023-03-06T12:14:42.729Z,10.70
2023-03-06T12:17:15.672Z,10.70
2023-03-06T12:20:40.846Z,10.80
2023-03-06T12:23:26.170Z,10.80
2023-03-06T12:26:17.799Z,10.80
2023-03-06T12:29:00.319Z,10.70
2023-03-06T12:31:37.875Z,10.80
2023-03-06T12:34:29.598Z,10.80
2023-03-06T12:36:59.853Z,10.90
2023-03-06T12:39:53.650Z,11.00
2023-03-06T12:42:30.458Z,11.30
2023-03-06T12:45:34.976Z,11.50
2023-03-06T12:48:04.762Z,12.20
2023-03-06T12:50:37.179Z,13.00
2023-03-06T12:53:07.850Z,13.60
2023-03-06T12:55:50.883Z,13.90
2023-03-06T12:58:30.986Z,14.20
2023-03-06T13:01:13.528Z,14.60
2023-03-06T13:03:53.186Z,14.90
2023-03-06T13:06:51.029Z,15.30
2023-03-06T13:09:53.856Z,15.50
2023-03-06T13:12:43.135Z,15.10
2023-03-06T13:15:31.942Z,14.90
2023-03-06T13:18:00.333Z,15.10
2023-03-06T13:20:35.221Z,15.50
2023-03-06T13:23:33.936Z,15.70
2023-03-06T13:26:22.591Z,15.40
2023-03-06T13:28:54.202Z,15.00
2023-03-06T13:31:34.094Z,15.10
2023-03-06T13:34:25.320Z,15.20
2023-03-06T13:36:52.935Z,15.10
2023-03-06T13:39:20.181Z,14.80
2023-03-06T13:42:00.828Z,14.40
2023-03-06T13:44:30.889Z,13.80
2023-03-06T13:47:21.785Z,13.30
2023-03-06T13:49:49.777Z,13.30
2023-03-06T13:52:55.213Z,13.80
2023-03-06T13:55:43.858Z,13.60
2023-03-06T13:58:34.147Z,13.60
2023-03-06T14:01:12.428Z,13.40
2023-03-06T14:04:11.389Z,13.40
2023-03-06T14:07:02.045Z,13.30
2023-03-06T14:09:47.606Z,13.20
2023-03-06T14:12:26.890Z,13.20
2023-03-06T14:14:59.932Z,13.00
2023-03-06T14:17:39.340Z,12.60
2023-03-06T14:20:18.923Z,12.60
2023-03-06T14:22:46.372Z,12.80
2023-03-06T14:25:20.266Z,12.60
2023-03-06T14:27:50.372Z,12.60
2023-03-06T14:30:26.351Z,13.00
2023-03-06T14:32:56.285Z,13.60
2023-03-06T14:35:29.041Z,14.30
2023-03-06T14:38:02.890Z,15.00
2023-03-06T14:40:42.865Z,15.40
2023-03-06T14:43:28.512Z,16.00
2023-03-06T14:46:02.073Z,16.20
2023-03-06T14:48:43.153Z,16.20
2023-03-06T14:51:31.531Z,16.30
2023-03-06T14:54:02.118Z,16.40
2023-03-06T14:56:33.574Z,16.40
2023-03-06T14:59:08.291Z,16.70
2023-03-06T15:01:41.805Z,17.00
2023-03-06T15:04:30.372Z,17.30
2023-03-06T15:06:59.179Z,17.70
2023-03-06T15:09:33.271Z,18.30
2023-03-06T15:12:05.429Z,18.90
2023-03-06T15:14:35.307Z,18.60
2023-03-06T15:17:18.013Z,18.60
2023-03-06T15:19:56.543Z,17.60
2023-03-06T15:22:39.065Z,16.40
2023-03-06T15:25:24.459Z,15.00
2023-03-06T15:27:58.618Z,14.70
2023-03-06T15:30:37.023Z,14.40
2023-03-06T15:33:26.460Z,15.60
2023-03-06T15:35:57.470Z,14.90
2023-03-06T15:38:46.545Z,15.50
2023-03-06T15:41:33.528Z,16.30
2023-03-06T15:44:03.232Z,17.20
2023-03-06T15:46:30.894Z,18.00
2023-03-06T15:49:03.231Z,18.60
2023-03-06T15:51:32.040Z,17.90
2023-03-06T15:54:11.263Z,16.90
2023-03-06T15:56:42.671Z,16.20
2023-03-06T15:59:24.477Z,15.70
2023-03-06T16:01:53.736Z,15.00
2023-03-06T16:04:21.210Z,14.50
2023-03-06T16:06:49.361Z,14.20
2023-03-06T16:09:18.430Z,13.90
2023-03-06T16:11:47.433Z,13.70
2023-03-06T16:14:24.091Z,13.50
2023-03-06T16:16:55.731Z,13.20
2023-03-06T16:19:27.431Z,13.30
2023-03-06T16:21:56.502Z,13.10
2023-03-06T16:24:25.020Z,12.70
2023-03-06T16:26:55.167Z,12.70
2023-03-06T16:29:24.947Z,12.70
2023-03-06T16:31:52.936Z,12.50
2023-03-06T16:34:21.603Z,12.70
2023-03-06T16:36:50.540Z,12.60
2023-03-06T16:39:20.132Z,12.40
2023-03-06T16:41:47.807Z,12.40
2023-03-06T16:44:16.549Z,12.30
2023-03-06T16:46:47.283Z,12.30
2023-03-06T16:49:23.465Z,12.30
2023-03-06T16:51:52.382Z,12.10
2023-03-06T16:54:21.222Z,12.20
2023-03-06T16:56:48.753Z,12.10
2023-03-06T16:59:16.270Z,12.00
2023-03-06T17:01:43.615Z,12.00
2023-03-06T17:04:11.977Z,12.00
2023-03-06T17:06:41.631Z,11.90
2023-03-06T17:09:11.132Z,11.90
2023-03-06T17:11:39.010Z,11.90
2023-03-06T17:14:07.148Z,11.90
2023-03-06T17:16:40.611Z,11.80
2023-03-06T17:19:08.255Z,11.80
2023-03-06T17:21:38.582Z,11.80
2023-03-06T17:24:06.883Z,11.70
2023-03-06T17:26:36.850Z,11.40
2023-03-06T17:29:06.921Z,11.50
2023-03-06T17:31:36.071Z,11.50
2023-03-06T17:34:04.155Z,11.30
2023-03-06T17:36:33.044Z,11.00
2023-03-06T17:39:03.138Z,11.00
2023-03-06T17:41:33.035Z,11.00
2023-03-06T17:44:01.961Z,11.20
2023-03-06T17:46:29.999Z,11.20
2023-03-06T17:48:57.722Z,11.10
2023-03-06T17:51:27.393Z,11.20
2023-03-06T17:53:55.836Z,11.10
2023-03-06T17:56:23.194Z,11.10
2023-03-06T17:58:50.681Z,11.10
2023-03-06T18:01:21.011Z,11.30
2023-03-06T18:03:50.887Z,11.30
2023-03-06T18:06:19.397Z,11.20
2023-03-06T18:08:47.447Z,11.20
2023-03-06T18:11:15.510Z,11.20
2023-03-06T18:13:46.484Z,11.10
2023-03-06T18:16:17.570Z,11.20
2023-03-06T18:18:45.601Z,11.10
2023-03-06T18:21:14.963Z,11.00
2023-03-06T18:23:42.569Z,10.40
2023-03-06T18:26:27.439Z,10.20
2023-03-06T18:29:01.592Z,10.10
2023-03-06T18:31:34.260Z,10.10
2023-03-06T18:34:14.185Z,10.10
2023-03-06T18:36:43.701Z,10.10
2023-03-06T18:39:13.112Z,10.10
2023-03-06T18:41:41.605Z,10.20
2023-03-06T18:44:09.095Z,10.10
2023-03-06T18:46:38.239Z,10.10
2023-03-06T18:49:06.241Z,10.10
2023-03-06T18:51:34.544Z,10.10
2023-03-06T18:54:03.928Z,10.10
2023-03-06T18:56:31.487Z,10.20
2023-03-06T18:59:07.002Z,10.30
2023-03-06T19:01:35.706Z,10.30
2023-03-06T19:04:04.309Z,10.30
2023-03-06T19:06:32.260Z,10.30
2023-03-06T19:09:02.447Z,10.40
2023-03-06T19:11:30.218Z,10.40
2023-03-06T19:13:57.785Z,10.40
2023-03-06T19:16:28.386Z,10.40
2023-03-06T19:18:56.469Z,10.50
2023-03-06T19:21:25.966Z,10.40
2023-03-06T19:23:54.158Z,10.40
2023-03-06T19:26:22.006Z,10.40
2023-03-06T19:28:50.300Z,10.30
2023-03-06T19:31:20.486Z,10.20
2023-03-06T19:33:49.546Z,10.20
2023-03-06T19:36:20.006Z,10.00
2023-03-06T19:38:53.706Z,10.00
2023-03-06T19:41:22.174Z,9.90
2023-03-06T19:43:53.460Z,10.00
2023-03-06T19:46:22.301Z,9.90
2023-03-06T19:48:57.913Z,9.90
2023-03-06T19:51:26.404Z,9.90
2023-03-06T19:53:54.163Z,9.90
2023-03-06T19:56:26.313Z,9.80
2023-03-06T19:58:54.808Z,9.80
2023-03-06T20:01:25.072Z,9.70
2023-03-06T20:04:00.518Z,9.70
2023-03-06T20:06:30.335Z,9.70
2023-03-06T20:08:58.037Z,9.70
2023-03-06T20:11:30.034Z,9.60
2023-03-06T20:14:02.434Z,9.60
2023-03-06T20:16:31.409Z,9.70
2023-03-06T20:19:00.470Z,9.50
2023-03-06T20:21:30.231Z,9.20
2023-03-06T20:23:58.373Z,9.20
2023-03-06T20:26:26.738Z,9.30
2023-03-06T20:28:55.198Z,9.30
2023-03-06T20:31:25.323Z,9.10
2023-03-06T20:33:54.755Z,9.10
2023-03-06T20:36:34.426Z,9.10
2023-03-06T20:39:09.643Z,8.80
2023-03-06T20:41:37.260Z,8.50
2023-03-06T20:44:09.730Z,8.20
2023-03-06T20:46:37.703Z,8.10
2023-03-06T20:49:05.506Z,8.40
2023-03-06T20:51:37.726Z,8.50
2023-03-06T20:54:07.186Z,8.60
2023-03-06T20:56:39.879Z,8.70
2023-03-06T20:59:10.858Z,8.80
2023-03-06T21:01:42.061Z,8.90
2023-03-06T21:04:12.877Z,8.70
2023-03-06T21:06:41.066Z,8.90
2023-03-06T21:09:08.906Z,8.70
2023-03-06T21:11:36.485Z,8.70
2023-03-06T21:14:03.847Z,8.50
2023-03-06T21:16:31.739Z,8.50
2023-03-06T21:19:00.545Z,8.50
2023-03-06T21:21:30.956Z,8.60
2023-03-06T21:23:59.280Z,8.70
2023-03-06T21:26:29.972Z,8.70
2023-03-06T21:29:01.062Z,8.40
2023-03-06T21:31:29.626Z,8.50
2023-03-06T21:33:58.747Z,8.60
2023-03-06T21:36:27.009Z,8.80
2023-03-06T21:38:55.969Z,8.70
2023-03-06T21:41:26.342Z,8.80
2023-03-06T21:43:58.551Z,8.90
2023-03-06T21:46:27.055Z,8.90
2023-03-06T21:48:55.475Z,8.90
2023-03-06T21:51:26.572Z,8.70
2023-03-06T21:53:55.062Z,8.80
2023-03-06T21:56:25.581Z,8.80
2023-03-06T21:58:53.828Z,8.90
2023-03-06T22:01:27.374Z,8.60
2023-03-06T22:03:56.125Z,8.10
2023-03-06T22:06:26.016Z,7.70
2023-03-06T22:08:55.970Z,7.50
2023-03-06T22:11:24.886Z,7.60
2023-03-06T22:13:53.710Z,7.70
2023-03-06T22:16:21.295Z,7.90
2023-03-06T22:18:50.732Z,8.10
2023-03-06T22:21:20.243Z,8.30
2023-03-06T22:23:58.641Z,8.50
2023-03-06T22:26:30.127Z,8.40
2023-03-06T22:28:57.565Z,8.40
2023-03-06T22:31:27.469Z,8.60
2023-03-06T22:33:56.085Z,8.40
2023-03-06T22:36:24.344Z,8.50
2023-03-06T22:38:57.127Z,8.50
2023-03-06T22:41:28.583Z,8.60
2023-03-06T22:43:59.842Z,8.70
2023-03-06T22:46:28.466Z,8.90
2023-03-06T22:49:00.393Z,9.00
2023-03-06T22:51:28.906Z,9.00
2023-03-06T22:53:56.632Z,9.00
2023-03-06T22:56:24.976Z,8.90
2023-03-06T22:58:52.749Z,8.90
2023-03-06T23:01:23.494Z,8.90
2023-03-06T23:03:52.992Z,8.60
2023-03-06T23:06:41.368Z,8.40
2023-03-06T23:09:16.433Z,8.40
2023-03-06T23:12:02.487Z,8.50
2023-03-06T23:14:51.171Z,8.50
2023-03-06T23:17:37.026Z,8.60
2023-03-06T23:20:23.754Z,8.50
2023-03-06T23:23:10.340Z,8.50
2023-03-06T23:25:44.606Z,8.70
2023-03-06T23:28:13.073Z,8.80
2023-03-06T23:30:42.953Z,8.90
2023-03-06T23:33:10.960Z,8.90
2023-03-06T23:35:39.578Z,9.00
2023-03-06T23:38:07.430Z,9.10
2023-03-06T23:40:36.404Z,9.00
2023-03-06T23:43:04.645Z,8.90
2023-03-06T23:45:34.597Z,9.00
2023-03-06T23:48:02.940Z,9.00
2023-03-06T23:50:30.251Z,9.00
2023-03-06T23:52:57.564Z,8.90
2023-03-06T23:55:24.920Z,8.90
2023-03-06T23:57:52.178Z,9.00
